Time;durP1;ratioP1;P1;durP2;ratioP2;P2;SDS_P1;SDS_P2;PMS_P1;PMS_P2;Temp;Humidity;BMP_temperature;BMP_pressure;BME280_temperature;BME280_humidity;BME280_pressure;Samples;Min_cycle;Max_cycle;Signal;HPM_P1;HPM_P2
2022/03/09 00:01:39;;;;;;;12.50;7.80;;;;;;;3.20;40.32;99313.22;4149220;28;20238;-44
2022/03/09 00:03:42;;;;;;;13.83;8.40;;;;;;;3.28;40.49;99304.72;4142829;28;20253;-39
2022/03/09 00:05:44;;;;;;;10.50;7.97;;;;;;;3.59;39.84;99310.19;4142313;28;20261;-39
2022/03/09 00:07:45;;;;;;;11.40;7.97;;;;;;;3.43;40.11;99311.38;4147075;28;20356;-40
2022/03/09 00:09:47;;;;;;;11.87;8.27;;;;;;;3.41;40.36;99312.47;4138929;28;20243;-41
2022/03/09 00:11:49;;;;;;;12.77;8.67;;;;;;;3.14;40.54;99317.16;4151077;28;20240;-39
2022/03/09 00:13:51;;;;;;;10.97;8.23;;;;;;;3.14;40.84;99324.22;4143751;28;20286;-37
2022/03/09 00:15:52;;;;;;;10.57;8.43;;;;;;;3.22;40.69;99318.34;4139844;28;20248;-36
2022/03/09 00:17:54;;;;;;;11.50;8.23;;;;;;;2.96;41.13;99322.09;4150218;28;20693;-38
2022/03/09 00:19:56;;;;;;;11.03;7.37;;;;;;;3.22;40.84;99321.81;4143768;28;20292;-41
2022/03/09 00:21:58;;;;;;;11.77;8.80;;;;;;;3.32;40.63;99322.75;4146284;28;20323;-43
2022/03/09 00:24:03;;;;;;;14.57;8.57;;;;;;;3.27;40.71;99324.09;4143756;28;20742;-39
2022/03/09 00:26:05;;;;;;;11.93;8.83;;;;;;;3.32;40.66;99324.53;4147088;28;20234;-42
2022/03/09 00:28:07;;;;;;;14.00;8.80;;;;;;;3.03;41.19;99330.31;4159894;28;20326;-40
2022/03/09 00:30:09;;;;;;;12.50;8.67;;;;;;;2.55;42.18;99330.53;4157657;28;20256;-36
2022/03/09 00:32:13;;;;;;;11.43;8.60;;;;;;;2.54;42.18;99324.47;4153382;28;20285;-42
2022/03/09 00:34:15;;;;;;;13.47;8.87;;;;;;;2.56;42.09;99319.94;4151397;28;20784;-42
2022/03/09 00:36:16;;;;;;;12.40;8.13;;;;;;;1.84;42.86;99330.59;4142430;28;20623;-40
2022/03/09 00:38:18;;;;;;;12.90;7.53;;;;;;;2.57;42.27;99312.88;4143395;28;20297;-38
2022/03/09 00:40:20;;;;;;;12.60;8.13;;;;;;;2.69;41.98;99316.34;4147090;28;20248;-39
2022/03/09 00:42:22;;;;;;;12.13;8.70;;;;;;;2.42;42.57;99326.25;4140581;28;20747;-36
2022/03/09 00:44:23;;;;;;;12.93;9.57;;;;;;;2.47;42.43;99330.28;4154272;28;20233;-37
2022/03/09 00:46:25;;;;;;;11.17;7.87;;;;;;;2.58;42.17;99327.69;4143698;28;20429;-40
2022/03/09 00:48:27;;;;;;;11.83;9.20;;;;;;;2.26;42.89;99323.09;4145232;28;20256;-43
2022/03/09 00:50:29;;;;;;;12.17;8.17;;;;;;;2.35;42.99;99324.19;4149214;28;20758;-41
2022/03/09 00:52:31;;;;;;;11.77;8.97;;;;;;;2.32;42.80;99334.91;4154741;28;20237;-42
2022/03/09 00:54:32;;;;;;;14.53;9.63;;;;;;;2.41;42.65;99337.69;4142558;28;20658;-42
2022/03/09 00:56:34;;;;;;;11.67;8.40;;;;;;;2.31;42.73;99336.72;4147280;28;20230;-38
2022/03/09 00:58:36;;;;;;;14.03;9.00;;;;;;;1.96;43.51;99328.84;4145170;28;20230;-40
2022/03/09 01:00:37;;;;;;;12.17;8.80;;;;;;;1.96;43.45;99329.69;4139721;28;20238;-42
2022/03/09 01:02:43;;;;;;;13.67;10.13;;;;;;;1.66;43.99;99332.78;4143118;28;20501;-43
2022/03/09 01:04:45;;;;;;;10.57;8.23;;;;;;;1.93;43.78;99331.69;4143775;28;20504;-43
2022/03/09 01:06:48;;;;;;;13.40;9.60;;;;;;;1.49;44.59;99328.75;4142850;28;20768;-37
2022/03/09 01:08:49;;;;;;;13.70;8.87;;;;;;;1.54;44.67;99324.03;4143267;28;20739;-38
2022/03/09 01:10:51;;;;;;;13.57;9.00;;;;;;;1.64;44.66;99321.56;4151418;28;20621;-34
2022/03/09 01:12:53;;;;;;;15.07;9.00;;;;;;;1.45;44.75;99316.84;4143254;28;20240;-38
2022/03/09 01:14:54;;;;;;;11.57;8.73;;;;;;;1.26;44.94;99327.81;4150002;28;20727;-40
2022/03/09 01:16:56;;;;;;;12.70;9.17;;;;;;;1.16;45.60;99316.31;4141361;28;20246;-34
2022/03/09 01:18:58;;;;;;;11.77;8.50;;;;;;;1.21;45.30;99320.28;4148117;28;20389;-36
2022/03/09 01:21:00;;;;;;;15.07;8.67;;;;;;;1.34;45.00;99309.75;4152620;28;20241;-36
2022/03/09 01:23:01;;;;;;;12.57;9.20;;;;;;;1.04;45.78;99303.16;4134936;28;20249;-41
2022/03/09 01:25:04;;;;;;;13.43;9.37;;;;;;;1.12;45.67;99305.22;4149143;28;20750;-39
2022/03/09 01:27:05;;;;;;;12.43;8.93;;;;;;;0.89;46.12;99305.03;4143554;28;20283;-41
2022/03/09 01:29:09;;;;;;;12.53;9.20;;;;;;;1.11;45.93;99298.31;4151084;28;20268;-39
2022/03/09 01:31:10;;;;;;;13.53;8.97;;;;;;;1.59;45.24;99290.47;4151569;28;20241;-40
2022/03/09 01:33:12;;;;;;;12.73;8.90;;;;;;;1.76;44.57;99291.00;4137299;28;20301;-42
2022/03/09 01:35:14;;;;;;;13.37;9.50;;;;;;;1.43;44.67;99298.63;4150607;28;20238;-39
2022/03/09 01:37:16;;;;;;;12.17;9.30;;;;;;;1.18;45.57;99288.25;4142857;28;20441;-35
2022/03/09 01:39:18;;;;;;;15.43;10.47;;;;;;;1.52;45.21;99287.44;4142562;28;20238;-42
2022/03/09 01:41:20;;;;;;;12.53;9.83;;;;;;;1.74;44.79;99290.28;4145348;28;20243;-37
2022/03/09 01:43:25;;;;;;;12.13;9.10;;;;;;;1.82;44.46;99280.91;4155586;28;20233;-43
2022/03/09 01:45:27;;;;;;;14.80;9.47;;;;;;;1.57;44.65;99299.41;4146563;28;20287;-41
2022/03/09 01:47:29;;;;;;;14.53;9.77;;;;;;;1.36;45.14;99297.41;4148628;28;20279;-36
2022/03/09 01:49:30;;;;;;;19.03;9.83;;;;;;;1.52;44.74;99292.69;4157399;28;20629;-35
2022/03/09 01:51:35;;;;;;;12.13;9.07;;;;;;;1.61;44.78;99292.97;4138292;28;20748;-37
2022/03/09 01:53:37;;;;;;;12.13;9.03;;;;;;;1.43;45.01;99297.78;4153528;28;20232;-38
2022/03/09 01:55:39;;;;;;;13.67;8.97;;;;;;;1.57;45.02;99287.13;4137811;28;20235;-34
2022/03/09 01:57:41;;;;;;;14.70;8.73;;;;;;;1.55;45.13;99278.53;4151368;28;20237;-39
2022/03/09 01:59:43;;;;;;;12.23;8.87;;;;;;;1.35;45.25;99284.41;4141787;28;20236;-38
2022/03/09 02:01:46;;;;;;;11.73;8.33;;;;;;;1.77;44.57;99271.72;4142826;28;20233;-39
2022/03/09 02:03:48;;;;;;;15.13;8.33;;;;;;;1.96;44.17;99276.41;4149535;28;20777;-38
2022/03/09 02:05:50;;;;;;;12.60;9.00;;;;;;;1.81;44.33;99292.34;4142078;28;20237;-37
2022/03/09 02:10:13;;;;;;;11.37;8.23;;;;;;;1.93;44.32;99276.63;4144215;28;20387;-39
2022/03/09 02:12:18;;;;;;;10.43;8.00;;;;;;;1.85;44.04;99288.53;4151838;28;20240;-36
2022/03/09 02:14:27;;;;;;;14.63;9.30;;;;;;;1.45;45.18;99288.03;4158837;28;20256;-38
2022/03/09 02:16:35;;;;;;;15.37;8.70;;;;;;;1.66;44.71;99283.84;4135848;28;20226;-38
2022/03/09 02:18:37;;;;;;;11.87;9.47;;;;;;;1.54;45.22;99279.47;4141599;28;20682;-37
2022/03/09 02:20:43;;;;;;;11.40;8.70;;;;;;;1.63;44.98;99281.44;4142317;28;20770;-39
2022/03/09 02:22:45;;;;;;;15.93;9.30;;;;;;;1.23;45.30;99280.88;4156533;28;20669;-41
2022/03/09 02:24:48;;;;;;;12.83;8.80;;;;;;;1.33;45.39;99277.47;4149705;28;20233;-39
2022/03/09 02:26:50;;;;;;;12.90;8.93;;;;;;;1.33;45.35;99274.88;4143215;28;20305;-38
2022/03/09 02:28:52;;;;;;;11.93;8.70;;;;;;;1.40;45.26;99275.25;4149312;28;20248;-41
2022/03/09 02:30:57;;;;;;;12.23;9.30;;;;;;;1.47;45.26;99267.78;4152829;28;20671;-40
2022/03/09 02:32:59;;;;;;;13.47;9.67;;;;;;;1.61;45.05;99272.84;4145588;28;20528;-37
2022/03/09 02:35:01;;;;;;;12.83;9.43;;;;;;;1.84;44.40;99268.50;4142223;28;20276;-39
2022/03/09 02:37:02;;;;;;;10.53;8.10;;;;;;;2.03;44.06;99275.84;4135359;28;20233;-40
2022/03/09 02:39:04;;;;;;;12.17;8.83;;;;;;;2.10;43.81;99273.59;4141907;28;20618;-39
2022/03/09 02:41:06;;;;;;;14.47;8.80;;;;;;;2.15;43.93;99265.34;4150702;28;20371;-42
2022/03/09 02:43:08;;;;;;;12.67;8.77;;;;;;;2.20;43.71;99271.09;4140954;28;20806;-38
2022/03/09 02:45:11;;;;;;;11.43;8.73;;;;;;;2.19;43.82;99272.88;4148661;28;20236;-39
2022/03/09 02:47:13;;;;;;;11.60;8.10;;;;;;;2.33;43.41;99271.81;4149943;28;20734;-39
2022/03/09 02:49:17;;;;;;;13.07;9.33;;;;;;;2.29;43.62;99280.91;4146122;28;20565;-42
2022/03/09 02:51:19;;;;;;;15.70;9.60;;;;;;;2.08;43.62;99283.34;4137249;28;20702;-38
2022/03/09 02:53:20;;;;;;;14.00;9.37;;;;;;;2.35;43.31;99280.44;4141632;28;20418;-37
2022/03/09 02:55:22;;;;;;;12.00;9.07;;;;;;;2.08;43.89;99284.22;4141534;28;20225;-40
2022/03/09 02:57:24;;;;;;;16.23;10.00;;;;;;;2.38;43.33;99284.59;4146486;28;20347;-41
2022/03/09 02:59:25;;;;;;;12.70;9.57;;;;;;;2.23;43.72;99274.34;4141894;28;20263;-40
2022/03/09 03:01:27;;;;;;;17.10;10.20;;;;;;;2.66;42.87;99277.19;4141441;28;20233;-39
2022/03/09 03:03:29;;;;;;;14.53;8.83;;;;;;;2.60;42.95;99283.78;4147696;28;20241;-36
2022/03/09 03:05:31;;;;;;;12.50;9.80;;;;;;;2.65;42.75;99289.50;4143701;28;20237;-39
2022/03/09 03:07:33;;;;;;;13.40;9.70;;;;;;;2.57;42.95;99297.13;4149075;28;20240;-36
2022/03/09 03:09:35;;;;;;;13.70;9.97;;;;;;;2.44;43.33;99295.47;4141112;28;20801;-40
2022/03/09 03:11:39;;;;;;;14.23;10.23;;;;;;;2.24;43.77;99296.16;4154771;28;20237;-35
2022/03/09 03:13:41;;;;;;;13.80;9.50;;;;;;;2.44;43.37;99290.22;4140591;28;20609;-40
2022/03/09 03:15:43;;;;;;;14.27;9.13;;;;;;;2.56;43.10;99295.47;4139172;28;20248;-40
2022/03/09 03:17:45;;;;;;;11.77;8.60;;;;;;;2.74;42.82;99306.31;4147145;28;20238;-42
2022/03/09 03:19:46;;;;;;;12.83;8.33;;;;;;;2.71;42.75;99303.97;4147231;28;20240;-37
2022/03/09 03:21:48;;;;;;;12.57;8.33;;;;;;;2.57;42.87;99307.63;4143102;28;20240;-41
2022/03/09 03:23:50;;;;;;;12.63;9.30;;;;;;;2.55;43.10;99307.75;4140712;28;20299;-40
2022/03/09 03:25:52;;;;;;;14.00;8.70;;;;;;;2.25;43.42;99314.41;4142980;28;20233;-40
2022/03/09 03:27:54;;;;;;;13.57;8.17;;;;;;;2.19;43.64;99314.03;4147334;28;20252;-40
2022/03/09 03:29:56;;;;;;;16.47;9.00;;;;;;;2.29;43.41;99317.63;4157248;28;20245;-38
2022/03/09 03:31:57;;;;;;;14.50;8.47;;;;;;;2.19;43.42;99320.09;4140063;28;20237;-42
2022/03/09 03:33:59;;;;;;;12.27;8.97;;;;;;;2.18;43.62;99315.78;4141249;28;20241;-39
2022/03/09 03:36:01;;;;;;;13.43;8.70;;;;;;;2.33;43.44;99312.97;4139619;28;20240;-39
2022/03/09 03:38:03;;;;;;;12.43;9.33;;;;;;;2.22;43.58;99319.06;4141273;28;20329;-39
2022/03/09 03:40:06;;;;;;;11.97;9.13;;;;;;;1.97;43.55;99330.53;4141268;28;20238;-41
2022/03/09 03:42:07;;;;;;;13.60;9.43;;;;;;;0.59;47.11;99328.94;4148917;28;20236;-37
2022/03/09 03:44:09;;;;;;;13.17;8.70;;;;;;;-0.46;48.63;99337.66;4149611;28;20241;-42
2022/03/09 03:46:11;;;;;;;13.40;10.00;;;;;;;-0.42;50.50;99311.22;4141949;28;20260;-41
2022/03/09 03:48:13;;;;;;;11.50;9.40;;;;;;;-0.78;51.92;99312.63;4143717;28;20237;-36
2022/03/09 03:50:14;;;;;;;13.63;10.00;;;;;;;-0.48;51.73;99300.31;4159334;28;20636;-40
2022/03/09 03:52:16;;;;;;;14.60;9.60;;;;;;;-0.83;51.44;99314.69;4160595;28;20232;-40
2022/03/09 03:54:18;;;;;;;13.87;9.33;;;;;;;0.65;49.60;99267.47;4160950;28;20587;-41
2022/03/09 03:56:20;;;;;;;14.37;9.17;;;;;;;-0.43;51.89;99311.31;4156890;28;20660;-41
2022/03/09 03:58:21;;;;;;;14.30;9.43;;;;;;;0.00;50.24;99301.50;4152366;28;20537;-41
2022/03/09 04:00:23;;;;;;;13.57;8.93;;;;;;;1.59;47.02;99274.72;4147600;28;20230;-40
2022/03/09 04:02:25;;;;;;;13.67;9.57;;;;;;;1.41;47.05;99278.69;4150120;28;20620;-39
2022/03/09 04:04:27;;;;;;;13.83;9.30;;;;;;;2.06;44.98;99295.75;4149806;28;20232;-42
2022/03/09 04:06:29;;;;;;;14.57;9.57;;;;;;;2.16;44.75;99306.38;4142552;28;20233;-42
2022/03/09 04:08:31;;;;;;;13.40;9.80;;;;;;;2.36;44.43;99289.13;4159930;28;20236;-39
2022/03/09 04:10:35;;;;;;;14.20;9.50;;;;;;;1.74;45.40;99295.53;4160094;28;20246;-39
2022/03/09 04:12:37;;;;;;;12.23;8.47;;;;;;;1.70;45.54;99295.75;4155579;28;20710;-42
2022/03/09 04:14:38;;;;;;;14.57;9.00;;;;;;;0.83;47.60;99323.78;4156678;28;20607;-42
2022/03/09 04:16:40;;;;;;;13.80;9.80;;;;;;;-0.69;50.46;99339.94;4149010;28;20239;-42
2022/03/09 04:18:42;;;;;;;13.33;9.33;;;;;;;-0.60;50.49;99313.25;4149969;28;20233;-41
2022/03/09 04:20:43;;;;;;;12.97;9.53;;;;;;;1.11;47.70;99266.91;4145644;28;20249;-37
2022/03/09 04:22:45;;;;;;;11.87;8.77;;;;;;;0.89;47.93;99276.25;4143423;28;20237;-42
2022/03/09 04:24:47;;;;;;;12.10;9.07;;;;;;;0.24;48.82;99303.41;4144005;28;20296;-42
2022/03/09 04:26:48;;;;;;;12.90;10.20;;;;;;;1.93;45.20;99274.03;4146794;28;20236;-38
2022/03/09 04:28:50;;;;;;;14.03;10.63;;;;;;;0.55;48.67;99293.47;4160170;28;20585;-45
2022/03/09 04:30:52;;;;;;;12.83;9.57;;;;;;;0.24;49.01;99308.63;4145315;28;20247;-40
2022/03/09 04:32:54;;;;;;;13.47;9.63;;;;;;;-0.04;49.10;99299.19;4159346;28;20252;-41
2022/03/09 04:34:55;;;;;;;13.53;9.33;;;;;;;-0.47;51.42;99307.22;4153676;28;20242;-41
2022/03/09 04:36:57;;;;;;;11.77;9.40;;;;;;;-0.44;51.59;99294.81;4142535;28;20825;-44
2022/03/09 04:38:59;;;;;;;13.60;9.23;;;;;;;-0.15;50.19;99290.25;4136365;28;20766;-38
2022/03/09 04:41:00;;;;;;;11.53;8.70;;;;;;;-0.12;50.32;99296.25;4141357;28;20254;-40
2022/03/09 04:43:02;;;;;;;13.23;9.97;;;;;;;0.35;48.65;99293.03;4129744;28;20235;-45
2022/03/09 04:45:05;;;;;;;12.27;9.60;;;;;;;0.38;49.83;99271.91;4142033;28;20234;-42
2022/03/09 04:47:06;;;;;;;16.47;9.30;;;;;;;0.42;49.79;99264.69;4137501;28;20279;-42
2022/03/09 04:49:08;;;;;;;11.83;9.23;;;;;;;1.77;45.95;99256.81;4143751;28;20233;-42
2022/03/09 04:51:10;;;;;;;12.67;8.60;;;;;;;1.69;45.70;99265.28;4146073;28;20246;-43
2022/03/09 04:53:14;;;;;;;16.53;10.17;;;;;;;1.64;45.73;99263.91;4146617;28;20251;-42
2022/03/09 04:55:16;;;;;;;14.57;9.23;;;;;;;2.37;44.07;99283.78;4137012;28;20231;-43
2022/03/09 04:57:18;;;;;;;14.63;9.77;;;;;;;2.52;43.60;99279.13;4147166;28;20226;-42
2022/03/09 04:59:20;;;;;;;13.03;8.93;;;;;;;0.62;47.00;99323.50;4150660;28;20293;-40
2022/03/09 05:01:21;;;;;;;14.87;9.60;;;;;;;1.48;45.88;99283.41;4143579;28;20234;-43
2022/03/09 05:03:24;;;;;;;11.97;8.60;;;;;;;1.54;45.53;99289.13;4147964;28;20753;-41
2022/03/09 05:05:26;;;;;;;13.37;9.03;;;;;;;-0.02;49.00;99334.75;4146338;28;20229;-40
2022/03/09 05:07:28;;;;;;;12.63;9.07;;;;;;;-0.62;51.00;99333.38;4146401;28;20286;-39
2022/03/09 05:09:29;;;;;;;12.13;9.27;;;;;;;-0.24;49.80;99313.59;4159582;28;20238;-42
2022/03/09 05:11:31;;;;;;;19.30;9.40;;;;;;;-0.58;51.99;99308.75;4141918;28;20233;-39
2022/03/09 05:13:33;;;;;;;12.60;9.67;;;;;;;1.20;47.43;99276.69;4142655;28;20697;-44
2022/03/09 05:15:34;;;;;;;12.03;9.37;;;;;;;0.91;47.93;99284.81;4142947;28;20232;-42
2022/03/09 05:17:43;;;;;;;14.03;10.27;;;;;;;1.53;45.80;99304.03;4145033;28;20284;-42
2022/03/09 05:19:45;;;;;;;15.57;10.97;;;;;;;1.97;44.89;99296.47;4150675;28;20234;-41
2022/03/09 05:21:47;;;;;;;13.40;10.30;;;;;;;1.75;45.04;99323.44;4143222;28;20240;-43
2022/03/09 05:24:08;;;;;;;15.17;9.90;;;;;;;1.97;44.66;99318.25;4142776;28;20408;-43
2022/03/09 05:26:10;;;;;;;13.03;9.60;;;;;;;1.25;46.49;99315.66;4144581;28;20249;-42
2022/03/09 05:28:13;;;;;;;15.87;9.53;;;;;;;0.43;47.74;99354.47;4143222;28;20234;-39
2022/03/09 05:30:14;;;;;;;13.00;9.47;;;;;;;-0.95;50.71;99376.34;4142249;28;20242;-43
2022/03/09 05:32:16;;;;;;;13.57;9.70;;;;;;;0.98;47.38;99306.19;4142750;28;20233;-44
2022/03/09 05:34:18;;;;;;;13.33;9.73;;;;;;;1.58;45.75;99301.06;4148331;28;20256;-42
2022/03/09 05:36:19;;;;;;;11.40;9.47;;;;;;;1.64;45.17;99322.41;4138698;28;20296;-41
2022/03/09 05:38:21;;;;;;;14.87;9.60;;;;;;;1.23;45.51;99338.50;4140532;28;20221;-43
2022/03/09 05:40:23;;;;;;;12.57;9.70;;;;;;;1.60;45.39;99318.34;4141357;28;20237;-40
2022/03/09 05:42:24;;;;;;;13.40;10.47;;;;;;;1.66;45.18;99325.78;4154394;28;20264;-42
2022/03/09 05:44:26;;;;;;;16.47;9.60;;;;;;;1.30;46.08;99324.84;4130271;28;20273;-42
2022/03/09 05:46:28;;;;;;;16.87;11.20;;;;;;;0.90;46.98;99324.19;4144663;28;20665;-44
2022/03/09 05:48:30;;;;;;;14.90;10.47;;;;;;;1.51;45.99;99313.78;4142482;28;20626;-43
2022/03/09 05:50:32;;;;;;;13.00;9.33;;;;;;;1.80;45.17;99324.75;4148102;28;20709;-40
2022/03/09 05:52:36;;;;;;;11.67;8.90;;;;;;;1.46;45.61;99324.59;4139277;28;20258;-43
2022/03/09 05:54:38;;;;;;;14.47;9.97;;;;;;;1.45;45.78;99329.94;4142212;28;20717;-43
2022/03/09 05:56:40;;;;;;;13.23;9.17;;;;;;;1.27;46.05;99360.91;4141517;28;20242;-40
2022/03/09 05:58:42;;;;;;;14.73;9.77;;;;;;;1.74;45.20;99351.41;4142414;28;20378;-42
2022/03/09 06:00:44;;;;;;;11.00;9.23;;;;;;;1.76;45.14;99352.13;4140519;28;20615;-43
2022/03/09 06:02:46;;;;;;;11.60;9.27;;;;;;;1.72;44.94;99352.47;4141891;28;20237;-41
2022/03/09 06:04:52;;;;;;;14.30;10.03;;;;;;;1.85;44.87;99355.88;4142509;28;20229;-40
2022/03/09 06:06:54;;;;;;;13.57;9.30;;;;;;;1.23;46.08;99368.16;4139024;28;20237;-43
2022/03/09 06:08:56;;;;;;;15.87;9.30;;;;;;;1.52;45.51;99362.63;4156211;28;20445;-38
2022/03/09 06:10:58;;;;;;;15.50;9.20;;;;;;;1.55;45.48;99359.78;4141721;28;20268;-42
2022/03/09 06:12:59;;;;;;;13.20;9.50;;;;;;;1.61;44.92;99364.59;4149493;28;20276;-43
2022/03/09 06:15:01;;;;;;;12.13;8.90;;;;;;;1.56;45.33;99379.81;4142139;28;20258;-43
2022/03/09 06:17:06;;;;;;;14.00;9.07;;;;;;;1.42;45.65;99380.75;4141893;28;20248;-42
2022/03/09 06:19:08;;;;;;;10.37;8.33;;;;;;;1.58;45.44;99377.91;4142354;28;20233;-44
2022/03/09 06:21:10;;;;;;;13.60;9.53;;;;;;;1.27;46.21;99379.25;4137656;28;20226;-39
2022/03/09 06:23:12;;;;;;;12.97;8.97;;;;;;;1.24;46.33;99385.56;4149703;28;20323;-42
2022/03/09 06:25:14;;;;;;;15.00;9.90;;;;;;;1.34;46.01;99383.09;4141839;28;20241;-40
2022/03/09 06:27:16;;;;;;;12.53;9.10;;;;;;;1.43;46.17;99379.00;4153554;28;20359;-43
2022/03/09 06:29:17;;;;;;;13.37;8.83;;;;;;;1.41;46.16;99380.88;4148350;28;20670;-44
2022/03/09 06:31:19;;;;;;;15.73;8.90;;;;;;;1.46;46.20;99384.00;4143254;28;20247;-44
2022/03/09 06:33:21;;;;;;;13.37;9.37;;;;;;;1.49;46.02;99383.78;4147249;28;20319;-41
2022/03/09 06:35:23;;;;;;;12.80;8.73;;;;;;;1.54;45.95;99388.72;4141552;28;20271;-43
2022/03/09 06:37:24;;;;;;;12.50;8.67;;;;;;;1.53;45.90;99387.88;4140089;28;20229;-45
2022/03/09 06:39:26;;;;;;;14.67;8.50;;;;;;;0.71;47.34;99401.34;4141388;28;20236;-44
2022/03/09 06:41:28;;;;;;;12.87;8.90;;;;;;;1.14;46.75;99395.00;4140880;28;20757;-43
2022/03/09 06:43:32;;;;;;;14.73;9.17;;;;;;;0.70;47.49;99409.31;4141436;28;20241;-43
2022/03/09 06:45:34;;;;;;;13.20;9.03;;;;;;;1.51;46.26;99380.13;4144078;28;20484;-41
2022/03/09 06:47:38;;;;;;;13.00;9.50;;;;;;;0.99;47.36;99396.03;4141281;28;20730;-40
2022/03/09 06:49:40;;;;;;;12.70;9.30;;;;;;;0.66;48.01;99408.69;4141063;28;20241;-41
2022/03/09 06:51:42;;;;;;;11.60;8.60;;;;;;;1.04;47.47;99392.19;4147458;28;20271;-44
2022/03/09 06:53:45;;;;;;;12.90;9.53;;;;;;;0.88;47.63;99418.53;4157205;28;20228;-43
2022/03/09 06:55:49;;;;;;;13.83;10.23;;;;;;;-0.71;52.00;99443.63;4140548;28;20727;-42
2022/03/09 06:57:51;;;;;;;16.67;11.00;;;;;;;0.96;49.05;99391.88;4148415;28;20244;-44
2022/03/09 06:59:53;;;;;;;15.83;11.50;;;;;;;1.47;47.73;99404.03;4141508;28;20283;-43
2022/03/09 07:01:54;;;;;;;16.63;10.23;;;;;;;1.00;48.10;99429.97;4141950;28;20239;-44
2022/03/09 07:03:56;;;;;;;16.07;11.20;;;;;;;1.30;47.63;99416.53;4142665;28;20308;-42
2022/03/09 07:05:58;;;;;;;12.80;9.27;;;;;;;1.22;48.07;99418.00;4139786;28;20589;-41
2022/03/09 07:08:00;;;;;;;14.27;9.83;;;;;;;1.28;47.99;99423.66;4143284;28;20240;-41
2022/03/09 07:10:02;;;;;;;17.07;10.73;;;;;;;1.14;48.41;99429.88;4157615;28;20236;-37
2022/03/09 07:12:04;;;;;;;13.53;9.37;;;;;;;1.26;48.59;99425.56;4148323;28;20233;-39
2022/03/09 07:14:06;;;;;;;16.10;10.60;;;;;;;1.18;48.76;99427.88;4141871;28;20916;-44
2022/03/09 07:16:08;;;;;;;16.73;11.50;;;;;;;1.20;48.96;99431.22;4137773;28;20233;-45
2022/03/09 07:18:11;;;;;;;13.13;9.60;;;;;;;1.54;47.94;99428.84;4141099;28;20302;-43
2022/03/09 07:20:13;;;;;;;15.17;9.47;;;;;;;1.92;47.04;99425.28;4143119;28;20241;-39
2022/03/09 07:22:15;;;;;;;14.87;10.17;;;;;;;1.93;46.81;99436.59;4143842;28;20237;-42
2022/03/09 07:24:17;;;;;;;14.43;10.07;;;;;;;2.00;46.41;99440.44;4142689;28;20240;-41
2022/03/09 07:26:19;;;;;;;13.47;9.60;;;;;;;2.17;46.23;99439.22;4141636;28;20237;-41
2022/03/09 07:28:20;;;;;;;13.73;10.03;;;;;;;2.05;46.84;99451.44;4154431;28;20232;-45
2022/03/09 07:30:22;;;;;;;16.87;10.80;;;;;;;1.96;47.68;99426.72;4155827;28;20268;-43
2022/03/09 07:32:24;;;;;;;14.77;10.43;;;;;;;1.58;47.25;99459.16;4148550;28;20228;-43
2022/03/09 07:34:46;;;;;;;17.10;11.23;;;;;;;1.93;47.23;99441.81;4144906;28;20353;-43
2022/03/09 07:36:48;;;;;;;15.23;11.57;;;;;;;1.85;47.14;99440.59;4147155;28;20683;-44
2022/03/09 07:38:49;;;;;;;12.90;10.40;;;;;;;2.03;46.84;99443.69;4144553;28;20295;-41
2022/03/09 07:41:11;;;;;;;12.80;9.80;;;;;;;2.20;46.51;99431.97;4150879;28;20244;-44
2022/03/09 07:43:13;;;;;;;13.30;11.10;;;;;;;2.31;46.33;99446.91;4147494;28;20278;-40
2022/03/09 07:45:19;;;;;;;16.13;10.67;;;;;;;2.19;46.74;99437.31;4157782;28;20228;-36
2022/03/09 07:47:21;;;;;;;13.77;10.13;;;;;;;1.30;48.22;99466.31;4144668;28;20781;-43
2022/03/09 07:49:23;;;;;;;13.00;9.17;;;;;;;0.65;51.09;99455.88;4143522;28;20238;-41
2022/03/09 07:51:25;;;;;;;12.27;9.10;;;;;;;1.01;50.27;99438.69;4143025;28;20264;-45
2022/03/09 07:53:26;;;;;;;13.43;9.77;;;;;;;1.83;47.81;99441.66;4144433;28;20265;-44
2022/03/09 07:55:28;;;;;;;13.07;9.47;;;;;;;2.44;46.54;99439.78;4144191;28;20834;-41
2022/03/09 07:57:30;;;;;;;13.57;9.77;;;;;;;2.82;45.99;99446.59;4151546;28;20260;-42
2022/03/09 07:59:31;;;;;;;13.13;10.60;;;;;;;2.99;45.44;99458.44;4144891;28;20263;-42
2022/03/09 08:01:33;;;;;;;13.90;10.77;;;;;;;2.79;45.93;99464.34;4143399;28;20281;-42
2022/03/09 08:03:35;;;;;;;13.60;10.83;;;;;;;2.74;46.28;99471.72;4143635;28;20609;-42
2022/03/09 08:05:40;;;;;;;15.47;11.23;;;;;;;2.79;46.15;99472.22;4144448;28;20550;-41
2022/03/09 08:07:43;;;;;;;14.13;11.60;;;;;;;2.89;45.89;99472.38;4157907;28;20240;-43
2022/03/09 08:09:44;;;;;;;15.00;11.20;;;;;;;2.97;45.53;99472.63;4157723;28;20714;-43
2022/03/09 08:11:46;;;;;;;14.43;11.13;;;;;;;3.16;45.32;99470.28;4152565;28;20307;-43
2022/03/09 08:13:48;;;;;;;15.23;12.13;;;;;;;3.03;45.76;99474.78;4160801;28;20620;-40
2022/03/09 08:15:50;;;;;;;16.47;11.80;;;;;;;3.01;46.25;99471.47;4144569;28;20231;-43
2022/03/09 08:17:51;;;;;;;15.20;12.23;;;;;;;3.25;46.04;99473.97;4152623;28;20254;-43
2022/03/09 08:19:53;;;;;;;15.87;12.03;;;;;;;2.98;46.13;99484.81;4159526;28;20280;-44
2022/03/09 08:21:55;;;;;;;14.00;10.43;;;;;;;3.05;46.49;99482.56;4146616;28;20236;-44
2022/03/09 08:23:57;;;;;;;13.13;11.07;;;;;;;3.28;46.27;99480.78;4149413;28;20626;-44
2022/03/09 08:25:59;;;;;;;15.97;11.43;;;;;;;3.18;46.17;99475.41;4151819;28;20228;-42
2022/03/09 08:28:02;;;;;;;13.97;10.77;;;;;;;3.45;45.76;99482.13;4159626;28;20286;-43
2022/03/09 08:30:04;;;;;;;13.93;10.30;;;;;;;3.43;45.66;99476.97;4150508;28;20719;-44
2022/03/09 08:32:06;;;;;;;12.27;9.83;;;;;;;3.62;45.16;99496.56;4152305;28;20614;-45
2022/03/09 08:34:08;;;;;;;14.47;10.17;;;;;;;3.70;44.89;99494.19;4140552;28;20321;-41
2022/03/09 08:36:12;;;;;;;13.83;10.40;;;;;;;2.92;46.87;99488.72;4142885;28;20240;-45
2022/03/09 08:38:14;;;;;;;15.10;10.73;;;;;;;3.55;45.59;99491.00;4138321;28;20228;-42
2022/03/09 08:40:16;;;;;;;13.33;10.23;;;;;;;4.14;44.48;99487.19;4138281;28;20290;-44
2022/03/09 08:42:18;;;;;;;12.33;10.17;;;;;;;4.03;44.57;99495.94;4154677;28;20239;-42
2022/03/09 08:44:21;;;;;;;18.87;10.03;;;;;;;4.11;44.23;99501.41;4143535;28;20235;-45
2022/03/09 08:46:23;;;;;;;15.23;10.63;;;;;;;4.25;44.55;99496.84;4144950;28;20259;-45
2022/03/09 08:48:26;;;;;;;13.17;10.03;;;;;;;4.20;43.90;99514.81;4143816;28;20236;-40
2022/03/09 08:50:28;;;;;;;14.10;10.23;;;;;;;4.08;44.73;99509.56;4143086;28;20232;-39
2022/03/09 08:52:37;;;;;;;16.93;10.00;;;;;;;4.18;44.18;99514.09;4144486;28;20232;-42
2022/03/09 08:54:40;;;;;;;11.80;9.80;;;;;;;4.29;44.35;99506.16;4151725;28;20235;-45
2022/03/09 08:56:42;;;;;;;14.83;10.20;;;;;;;4.23;44.83;99522.44;4143557;28;20327;-41
2022/03/09 08:58:44;;;;;;;27.20;18.30;;;;;;;4.38;44.48;99523.00;4151019;28;20290;-40
2022/03/09 09:00:45;;;;;;;15.83;11.90;;;;;;;3.78;46.25;99525.97;4141168;28;20255;-42
2022/03/09 09:02:47;;;;;;;12.17;9.67;;;;;;;3.41;48.76;99526.19;4157261;28;20592;-45
2022/03/09 09:04:49;;;;;;;12.40;8.97;;;;;;;3.50;48.71;99515.00;4144652;28;20246;-42
2022/03/09 09:06:52;;;;;;;13.70;10.87;;;;;;;3.80;47.08;99525.84;4147132;28;20252;-43
2022/03/09 09:08:53;;;;;;;13.37;10.23;;;;;;;4.44;45.18;99519.84;4154466;28;20455;-44
2022/03/09 09:10:55;;;;;;;13.27;9.60;;;;;;;4.76;44.45;99511.13;4141510;28;20249;-38
2022/03/09 09:12:59;;;;;;;13.13;9.93;;;;;;;4.95;43.78;99511.25;4142820;28;20249;-45
2022/03/09 09:15:01;;;;;;;14.20;9.93;;;;;;;4.52;44.54;99538.50;4135512;28;20650;-43
2022/03/09 09:17:03;;;;;;;12.73;9.97;;;;;;;4.19;45.76;99518.38;4139474;28;20291;-43
2022/03/09 09:19:24;;;;;;;15.03;10.40;;;;;;;4.27;45.58;99510.69;4138094;28;20225;-43
2022/03/09 09:21:26;;;;;;;12.70;10.43;;;;;;;4.91;44.36;99516.91;4142218;28;20234;-45
2022/03/09 09:23:27;;;;;;;14.43;10.67;;;;;;;4.98;43.91;99524.19;4142052;28;20240;-41
2022/03/09 09:25:29;;;;;;;14.60;10.53;;;;;;;5.45;43.39;99509.75;4141935;28;20383;-41
2022/03/09 09:27:31;;;;;;;16.20;11.30;;;;;;;5.29;43.40;99521.59;4147960;28;20282;-43
2022/03/09 09:29:48;;;;;;;16.73;11.20;;;;;;;3.81;46.11;99553.84;4142603;28;20721;-40
2022/03/09 09:31:49;;;;;;;14.33;10.70;;;;;;;4.42;46.04;99521.78;4141526;28;20233;-41
2022/03/09 09:33:51;;;;;;;15.77;10.93;;;;;;;5.02;44.76;99514.22;4142919;28;20241;-39
2022/03/09 09:35:53;;;;;;;15.13;10.63;;;;;;;5.38;45.41;99491.00;4143351;28;20244;-42
2022/03/09 09:37:55;;;;;;;16.70;10.73;;;;;;;5.08;45.91;99518.13;4146796;28;20240;-44